Time;durP1;ratioP1;P1;durP2;ratioP2;P2;SDS_P1;SDS_P2;PMS_P1;PMS_P2;Temp;Humidity;BMP_temperature;BMP_pressure;BME280_temperature;BME280_humidity;BME280_pressure;Samples;Min_cycle;Max_cycle;Signal;HPM_P1;HPM_P2
2021/05/07 00:00:54;;;;;;;;;;;;;;;;;;5032798;28;19928;-58
2021/05/07 00:03:20;;;;;;;;;;;;;;;;;;5032443;28;19993;-58
2021/05/07 00:05:53;;;;;;;;;;;;;;;;;;5032403;28;19905;-58
2021/05/07 00:08:20;;;;;;;;;;;;;;;;;;5035231;27;19924;-58
2021/05/07 00:10:46;;;;;;;;;;;;;;;;;;5032247;28;19906;-58
2021/05/07 00:13:12;;;;;;;;;;;;;;;;;;5032324;28;19910;-58
2021/05/07 00:15:38;;;;;;;;;;;;;;;;;;5032319;28;19905;-58
2021/05/07 00:18:05;;;;;;;;;;;;;;;;;;5032288;28;19974;-58
2021/05/07 00:20:31;;;;;;;;;;;;;;;;;;5032208;28;19940;-58
2021/05/07 00:22:57;;;;;;;;;;;;;;;;;;5032137;28;19905;-58
2021/05/07 00:25:24;;;;;;;;;;;;;;;;;;5032172;28;20400;-58
2021/05/07 00:27:50;;;;;;;;;;;;;;;;;;5032062;28;19909;-57
2021/05/07 00:30:16;;;;;;;;;;;;;;;;;;5032052;28;20383;-58
2021/05/07 00:32:42;;;;;;;;;;;;;;;;;;5031147;28;19913;-57
2021/05/07 00:35:09;;;;;;;;;;;;;;;;;;5031929;28;19909;-58
2021/05/07 00:37:35;;;;;;;;;;;;;;;;;;5031977;28;20303;-58
2021/05/07 00:40:01;;;;;;;;;;;;;;;;;;5031859;28;20272;-58
2021/05/07 00:42:27;;;;;;;;;;;;;;;;;;5031786;28;19912;-58
2021/05/07 00:44:54;;;;;;;;;;;;;;;;;;5031811;28;20252;-58
2021/05/07 00:47:20;;;;;;;;;;;;;;;;;;5031796;28;19995;-58
2021/05/07 00:49:46;;;;;;;;;;;;;;;;;;5031778;28;19905;-58
2021/05/07 00:52:13;;;;;;;;;;;;;;;;;;5031558;28;19919;-58
2021/05/07 00:54:39;;;;;;;;;;;;;;;;;;5013995;28;19932;-58
2021/05/07 00:57:05;;;;;;;;;;;;;;;;;;5031559;28;19909;-58
2021/05/07 00:59:31;;;;;;;;;;;;;;;;;;5031641;28;19905;-58
2021/05/07 01:01:58;;;;;;;;;;;;;;;;;;5031512;28;20382;-59
2021/05/07 01:04:26;;;;;;;;;;;;;;;;;;5031816;28;19905;-59
2021/05/07 01:06:52;;;;;;;;;;;;;;;;;;5031534;28;19912;-60
2021/05/07 01:09:18;;;;;;;;;;;;;;;;;;5034291;27;20019;-59
2021/05/07 01:11:44;;;;;;;;;;;;;;;;;;5031285;28;19998;-59
2021/05/07 01:14:14;;;;;;;;;;;;;;;;;;5031381;28;19905;-60
2021/05/07 01:16:40;;;;;;;;;;;;;;;;;;5031599;28;19931;-60
2021/05/07 01:19:06;;;;;;;;;;;;;;;;;;5031325;28;19912;-60
2021/05/07 01:21:33;;;;;;;;;;;;;;;;;;5031230;28;19912;-59
2021/05/07 01:23:59;;;;;;;;;;;;;;;;;;5031133;28;19905;-60
2021/05/07 01:26:25;;;;;;;;;;;;;;;;;;5031143;28;19905;-59
2021/05/07 01:28:52;;;;;;;;;;;;;;;;;;5031058;28;19905;-60
2021/05/07 01:31:18;;;;;;;;;;;;;;;;;;5031057;28;20011;-61
2021/05/07 01:33:44;;;;;;;;;;;;;;;;;;5030957;28;19928;-59
2021/05/07 01:36:10;;;;;;;;;;;;;;;;;;5031021;28;19957;-59
2021/05/07 01:38:37;;;;;;;;;;;;;;;;;;5030976;28;19913;-59
2021/05/07 01:41:03;;;;;;;;;;;;;;;;;;5013333;28;19974;-60
2021/05/07 01:43:31;;;;;;;;;;;;;;;;;;5030921;28;20383;-58
2021/05/07 01:45:58;;;;;;;;;;;;;;;;;;5029700;28;20311;-59
2021/05/07 01:48:24;;;;;;;;;;;;;;;;;;5030779;28;19905;-59
2021/05/07 01:50:50;;;;;;;;;;;;;;;;;;5030620;28;19948;-59
2021/05/07 01:53:17;;;;;;;;;;;;;;;;;;5030723;28;19912;-61
2021/05/07 01:55:43;;;;;;;;;;;;;;;;;;5030723;28;19927;-60
2021/05/07 01:58:09;;;;;;;;;;;;;;;;;;5030734;28;20304;-61
2021/05/07 02:00:36;;;;;;;;;;;;;;;;;;5030685;28;19912;-60
2021/05/07 02:03:02;;;;;;;;;;;;;;;;;;5030625;28;19911;-60
2021/05/07 02:05:31;;;;;;;;;;;;;;;;;;5030620;28;19909;-60
2021/05/07 02:07:57;;;;;;;;;;;;;;;;;;5033260;27;19913;-60
2021/05/07 02:10:24;;;;;;;;;;;;;;;;;;5030693;28;19912;-60
2021/05/07 02:12:50;;;;;;;;;;;;;;;;;;5030420;28;20360;-58
2021/05/07 02:15:16;;;;;;;;;;;;;;;;;;5030499;28;19909;-59
2021/05/07 02:17:43;;;;;;;;;;;;;;;;;;5030441;28;19957;-60
2021/05/07 02:20:09;;;;;;;;;;;;;;;;;;5030429;28;19996;-60
2021/05/07 02:22:35;;;;;;;;;;;;;;;;;;5030340;28;20279;-60
2021/05/07 02:25:01;;;;;;;;;;;;;;;;;;5030390;28;19958;-60
2021/05/07 02:27:28;;;;;;;;;;;;;;;;;;5030364;28;20216;-60
2021/05/07 02:29:54;;;;;;;;;;;;;;;;;;5030343;28;19912;-60
2021/05/07 02:32:20;;;;;;;;;;;;;;;;;;5030148;28;20459;-60
2021/05/07 02:34:47;;;;;;;;;;;;;;;;;;5030325;28;20268;-60
2021/05/07 02:37:13;;;;;;;;;;;;;;;;;;5030273;28;19905;-60
2021/05/07 02:39:39;;;;;;;;;;;;;;;;;;5030140;28;19905;-60
2021/05/07 02:42:05;;;;;;;;;;;;;;;;;;5030148;28;20404;-60
2021/05/07 02:44:32;;;;;;;;;;;;;;;;;;5030230;28;20004;-60
2021/05/07 02:47:04;;;;;;;;;;;;;;;;;;5030111;28;19906;-60
2021/05/07 02:49:30;;;;;;;;;;;;;;;;;;5030128;28;20268;-60
2021/05/07 02:51:56;;;;;;;;;;;;;;;;;;5029881;28;19913;-60
2021/05/07 02:54:23;;;;;;;;;;;;;;;;;;5030097;28;19905;-60
2021/05/07 03:09:59;;;;;;;11.23;8.30;;;;;;;;;;5806789;22;9205542;-57
2021/05/07 03:12:26;;;;;;;10.17;7.27;;;;;;;;;;6193830;23;20009;-57
2021/05/07 03:14:53;;;;;;;9.83;7.50;;;;;;;;;;6193770;23;20012;-57
2021/05/07 03:17:20;;;;;;;10.17;7.13;;;;;;;;;;6193828;23;20001;-57
2021/05/07 03:19:47;;;;;;;12.50;7.40;;;;;;;;;;6193650;23;20020;-57
2021/05/07 03:22:14;;;;;;;16.63;12.37;;;;;;;;;;6193760;23;20035;-56
2021/05/07 03:24:40;;;;;;;11.33;8.20;;;;;;;;;;6193784;23;20012;-57
2021/05/07 03:27:07;;;;;;;9.93;7.57;;;;;;;;;;6193676;23;20001;-57
2021/05/07 03:29:34;;;;;;;12.83;8.30;;;;;;;;;;6193577;23;20015;-57
2021/05/07 03:32:01;;;;;;;11.37;9.07;;;;;;;;;;6193693;23;19997;-57
2021/05/07 03:34:28;;;;;;;13.27;8.60;;;;;;;;;;6193733;23;20424;-57
2021/05/07 03:36:54;;;;;;;10.97;8.67;;;;;;;;;;6193440;23;20008;-56
2021/05/07 03:39:21;;;;;;;10.63;7.87;;;;;;;;;;6193474;23;20084;-56
2021/05/07 03:41:48;;;;;;;10.60;7.80;;;;;;;;;;6193589;23;20071;-57
2021/05/07 03:44:15;;;;;;;12.23;7.63;;;;;;;;;;6193571;23;20340;-57
2021/05/07 03:46:42;;;;;;;10.13;7.50;;;;;;;;;;6193630;23;20323;-57
2021/05/07 03:49:08;;;;;;;11.43;7.73;;;;;;;;;;6193421;23;20005;-57
2021/05/07 03:51:36;;;;;;;9.27;6.80;;;;;;;;;;6193549;23;20028;-57
2021/05/07 03:54:03;;;;;;;9.97;6.70;;;;;;;;;;6193453;23;20393;-57
2021/05/07 03:56:30;;;;;;;8.23;5.93;;;;;;;;;;6193554;23;20008;-56
2021/05/07 03:58:56;;;;;;;10.30;7.30;;;;;;;;;;6193337;23;20072;-57
2021/05/07 04:01:24;;;;;;;11.10;6.10;;;;;;;;;;6193468;23;20005;-57
2021/05/07 04:03:52;;;;;;;8.50;6.57;;;;;;;;;;6193456;23;20024;-57
2021/05/07 04:06:21;;;;;;;8.57;6.30;;;;;;;;;;6193314;23;20332;-57
2021/05/07 04:09:01;;;;;;;8.47;6.17;;;;;;;;;;6192743;23;20020;-57
2021/05/07 04:11:33;;;;;;;7.97;6.43;;;;;;;;;;6186757;23;20001;-57
2021/05/07 04:13:59;;;;;;;8.50;6.10;;;;;;;;;;6186609;23;20332;-57
2021/05/07 04:16:26;;;;;;;8.10;6.00;;;;;;;;;;6186457;23;20005;-57
2021/05/07 04:18:56;;;;;;;8.30;5.10;;;;;;;;;;6186528;23;20012;-56
2021/05/07 04:21:26;;;;;;;10.73;7.03;;;;;;;;;;6186688;23;20005;-56
2021/05/07 04:23:53;;;;;;;11.50;8.27;;;;;;;;;;6186465;23;20009;-56
2021/05/07 04:26:20;;;;;;;11.10;8.63;;;;;;;;;;6186403;23;20005;-57
2021/05/07 04:28:47;;;;;;;10.93;7.87;;;;;;;;;;6186267;23;20016;-56
2021/05/07 04:31:14;;;;;;;11.60;8.73;;;;;;;;;;6186372;23;20001;-57
2021/05/07 04:33:41;;;;;;;10.63;7.63;;;;;;;;;;6186548;23;20001;-57
2021/05/07 04:36:08;;;;;;;12.13;8.60;;;;;;;;;;6186286;23;20001;-57
2021/05/07 04:38:36;;;;;;;15.20;8.60;;;;;;;;;;6186039;23;20431;-57
2021/05/07 04:41:03;;;;;;;11.90;8.67;;;;;;;;;;6186226;23;20005;-57
2021/05/07 04:43:30;;;;;;;13.13;8.90;;;;;;;;;;6186214;23;20555;-57
2021/05/07 04:45:57;;;;;;;11.57;9.07;;;;;;;;;;6186420;23;20001;-57
2021/05/07 04:48:24;;;;;;;11.10;8.17;;;;;;;;;;6186116;23;20009;-56
2021/05/07 04:50:51;;;;;;;15.57;9.07;;;;;;;;;;6186176;23;20389;-56
2021/05/07 04:53:18;;;;;;;12.77;8.27;;;;;;;;;;6186148;23;20339;-57
2021/05/07 04:55:44;;;;;;;11.17;8.17;;;;;;;;;;6186187;23;20416;-57
2021/05/07 04:58:11;;;;;;;9.97;7.97;;;;;;;;;;6186207;23;20009;-56
2021/05/07 05:00:38;;;;;;;11.17;8.20;;;;;;;;;;6186131;23;20439;-56
2021/05/07 05:03:05;;;;;;;10.80;7.90;;;;;;;;;;6186279;23;20005;-57
2021/05/07 05:05:32;;;;;;;11.30;8.10;;;;;;;;;;6186210;23;20048;-57
2021/05/07 05:07:59;;;;;;;10.60;8.90;;;;;;;;;;6187168;23;20020;-57
2021/05/07 05:10:25;;;;;;;13.00;9.37;;;;;;;;;;6186478;23;20024;-57
2021/05/07 05:12:52;;;;;;;10.70;9.13;;;;;;;;;;6186215;23;20471;-56
2021/05/07 05:15:20;;;;;;;10.87;9.00;;;;;;;;;;6185973;23;20005;-56
2021/05/07 05:17:47;;;;;;;11.07;8.93;;;;;;;;;;6185864;23;20356;-56
2021/05/07 05:20:13;;;;;;;13.27;9.63;;;;;;;;;;6185843;23;20005;-56
2021/05/07 05:22:40;;;;;;;11.17;8.90;;;;;;;;;;6185782;23;20001;-57
2021/05/07 06:23:15;;;;;;;8.67;6.93;;;;;;;;;;6185627;23;20336;-56
2021/05/07 06:25:41;;;;;;;8.73;6.20;;;;;;;;;;6185713;23;20379;-56
2021/05/07 06:28:08;;;;;;;7.40;5.53;;;;;;;;;;6185526;23;20001;-56
2021/05/07 06:30:35;;;;;;;7.43;5.37;;;;;;;;;;6185186;23;20059;-56
2021/05/07 06:33:02;;;;;;;8.40;5.80;;;;;;;;;;6185381;23;20007;-56
2021/05/07 06:35:28;;;;;;;8.83;5.97;;;;;;;;;;6185273;23;20063;-56
2021/05/07 06:37:57;;;;;;;8.07;5.77;;;;;;;;;;6185205;23;20009;-56
2021/05/07 06:40:23;;;;;;;8.67;5.93;;;;;;;;;;6185217;23;20121;-56
2021/05/07 06:42:50;;;;;;;7.40;5.40;;;;;;;;;;6185587;23;20430;-56
2021/05/07 06:45:17;;;;;;;7.13;4.60;;;;;;;;;;6185574;23;20312;-56
2021/05/07 06:47:44;;;;;;;8.30;5.63;;;;;;;;;;6185172;23;20016;-57
2021/05/07 06:50:15;;;;;;;8.03;5.90;;;;;;;;;;6185056;23;20005;-56
2021/05/07 06:52:42;;;;;;;7.53;5.73;;;;;;;;;;6185532;23;20009;-57
2021/05/07 06:55:11;;;;;;;6.53;5.07;;;;;;;;;;6185231;23;20028;-57
2021/05/07 06:57:38;;;;;;;9.67;5.60;;;;;;;;;;6185110;23;20009;-56
2021/05/07 07:00:06;;;;;;;5.47;4.27;;;;;;;;;;6184960;23;20005;-56
2021/05/07 07:02:33;;;;;;;7.67;5.37;;;;;;;;;;6185033;23;20127;-56
2021/05/07 07:04:59;;;;;;;6.30;5.07;;;;;;;;;;6185060;23;20386;-56
2021/05/07 07:07:27;;;;;;;6.53;5.10;;;;;;;;;;6185192;23;20001;-57
2021/05/07 07:09:54;;;;;;;5.80;4.67;;;;;;;;;;6186205;23;20360;-57
2021/05/07 07:12:21;;;;;;;7.80;5.33;;;;;;;;;;6185455;23;20008;-56
2021/05/07 07:14:48;;;;;;;7.33;5.10;;;;;;;;;;6185075;23;20083;-56
2021/05/07 07:17:16;;;;;;;5.80;4.70;;;;;;;;;;6184950;23;20009;-56
2021/05/07 07:19:43;;;;;;;7.03;4.87;;;;;;;;;;6185075;23;20037;-56
2021/05/07 07:22:09;;;;;;;6.97;4.93;;;;;;;;;;6185075;23;20416;-56
2021/05/07 07:24:36;;;;;;;7.13;5.00;;;;;;;;;;6184948;23;20009;-57
2021/05/07 07:27:03;;;;;;;7.23;5.00;;;;;;;;;;6185179;23;20077;-56
2021/05/07 07:29:29;;;;;;;6.90;4.57;;;;;;;;;;6184945;23;20444;-56
2021/05/07 07:31:56;;;;;;;5.67;4.10;;;;;;;;;;6184895;23;20005;-56
2021/05/07 07:34:23;;;;;;;7.53;5.07;;;;;;;;;;6185128;23;20005;-56
2021/05/07 07:36:50;;;;;;;6.60;4.43;;;;;;;;;;6184939;23;20012;-56
2021/05/07 07:39:19;;;;;;;5.97;4.00;;;;;;;;;;6184950;23;20076;-56
2021/05/07 07:41:47;;;;;;;6.57;4.27;;;;;;;;;;6184935;23;20494;-56
2021/05/07 07:44:14;;;;;;;6.07;4.47;;;;;;;;;;6185442;23;20009;-57
2021/05/07 07:46:40;;;;;;;6.03;4.40;;;;;;;;;;6186984;23;19997;-56
2021/05/07 07:49:07;;;;;;;5.00;3.77;;;;;;;;;;6186886;23;20051;-57
2021/05/07 07:51:35;;;;;;;5.80;4.03;;;;;;;;;;6186722;23;20020;-56
2021/05/07 07:54:03;;;;;;;6.70;4.23;;;;;;;;;;6186752;23;20001;-56
2021/05/07 07:56:30;;;;;;;6.00;4.37;;;;;;;;;;6186866;23;20287;-57
2021/05/07 07:58:57;;;;;;;6.37;4.00;;;;;;;;;;6186504;23;20020;-56
2021/05/07 08:01:23;;;;;;;5.63;3.67;;;;;;;;;;6186701;23;20012;-56
2021/05/07 08:03:50;;;;;;;5.13;3.63;;;;;;;;;;6160368;23;20055;-56
2021/05/07 08:06:17;;;;;;;3.77;3.10;;;;;;;;;;6186534;23;20032;-56
2021/05/07 08:08:44;;;;;;;4.53;3.27;;;;;;;;;;6187457;23;20021;-57
2021/05/07 08:11:10;;;;;;;5.83;3.67;;;;;;;;;;6186897;23;20333;-56
2021/05/07 08:13:37;;;;;;;5.77;3.50;;;;;;;;;;6186498;23;20005;-56
2021/05/07 08:16:04;;;;;;;4.30;2.97;;;;;;;;;;6186799;23;20324;-57
2021/05/07 08:18:30;;;;;;;5.67;3.80;;;;;;;;;;6186684;23;20013;-56
2021/05/07 08:20:57;;;;;;;5.73;3.63;;;;;;;;;;6186420;23;20025;-56
2021/05/07 08:23:24;;;;;;;4.87;3.47;;;;;;;;;;6186497;23;20269;-56
2021/05/07 08:25:50;;;;;;;4.80;3.70;;;;;;;;;;6186565;23;20005;-56
2021/05/07 08:28:17;;;;;;;5.10;3.60;;;;;;;;;;6186535;23;20012;-56
2021/05/07 08:30:44;;;;;;;5.40;3.60;;;;;;;;;;6186316;23;20005;-56
2021/05/07 08:33:11;;;;;;;5.00;3.43;;;;;;;;;;6186353;23;20453;-56
2021/05/07 08:35:37;;;;;;;5.10;3.83;;;;;;;;;;6186404;23;20105;-56
2021/05/07 08:38:04;;;;;;;4.70;3.50;;;;;;;;;;6186150;23;20023;-56
2021/05/07 08:40:31;;;;;;;4.57;3.30;;;;;;;;;;6186385;23;20056;-56
2021/05/07 08:42:59;;;;;;;4.53;3.27;;;;;;;;;;6186270;23;20024;-56
2021/05/07 08:45:26;;;;;;;7.40;3.50;;;;;;;;;;6186319;23;20420;-56
2021/05/07 08:47:53;;;;;;;4.73;3.53;;;;;;;;;;6186237;23;20096;-56
2021/05/07 08:50:21;;;;;;;4.63;3.50;;;;;;;;;;6186114;23;20071;-56
2021/05/07 08:52:48;;;;;;;6.07;3.90;;;;;;;;;;6186237;23;20005;-56
2021/05/07 08:55:14;;;;;;;5.13;3.43;;;;;;;;;;6186125;23;20005;-56
2021/05/07 08:57:41;;;;;;;4.23;3.17;;;;;;;;;;6186285;23;20466;-56
2021/05/07 09:00:09;;;;;;;5.07;3.63;;;;;;;;;;6186018;23;20001;-56
2021/05/07 09:02:36;;;;;;;4.80;3.67;;;;;;;;;;6186447;23;20428;-56
2021/05/07 09:05:03;;;;;;;5.13;3.53;;;;;;;;;;6186266;23;19997;-56
2021/05/07 09:07:30;;;;;;;6.70;4.20;;;;;;;;;;6185861;23;20009;-56
2021/05/07 09:09:58;;;;;;;7.10;4.50;;;;;;;;;;6187022;22;20072;-56
2021/05/07 09:12:40;;;;;;;5.33;3.83;;;;;;;;;;6186278;23;20076;-56
2021/05/07 09:15:09;;;;;;;4.80;3.40;;;;;;;;;;6185978;23;20080;-56
2021/05/07 09:17:38;;;;;;;5.10;3.20;;;;;;;;;;6185748;23;20421;-56
2021/05/07 09:20:05;;;;;;;5.73;3.80;;;;;;;;;;6185813;23;20424;-56
2021/05/07 09:22:31;;;;;;;6.40;3.80;;;;;;;;;;6186477;23;20001;-56
2021/05/07 09:25:04;;;;;;;4.47;3.37;;;;;;;;;;6185864;23;20083;-56
2021/05/07 09:27:31;;;;;;;5.00;3.83;;;;;;;;;;6185822;23;20009;-56
2021/05/07 09:29:57;;;;;;;6.37;3.77;;;;;;;;;;6185757;23;20012;-56
2021/05/07 09:32:33;;;;;;;7.77;4.13;;;;;;;;;;6186045;23;20032;-56
2021/05/07 09:35:08;;;;;;;6.03;3.93;;;;;;;;;;6185749;23;20010;-56
2021/05/07 09:37:35;;;;;;;6.00;4.03;;;;;;;;;;6185810;23;20479;-56
2021/05/07 09:40:12;;;;;;;6.07;4.00;;;;;;;;;;6185564;23;20063;-56
2021/05/07 09:42:39;;;;;;;4.33;3.33;;;;;;;;;;6185746;23;20001;-56
2021/05/07 09:45:06;;;;;;;7.40;4.53;;;;;;;;;;6185780;23;20451;-56
2021/05/07 09:47:33;;;;;;;5.30;4.30;;;;;;;;;;6185858;23;19993;-56
2021/05/07 09:50:04;;;;;;;6.30;4.47;;;;;;;;;;6185558;23;20005;-56
2021/05/07 09:52:31;;;;;;;4.77;3.70;;;;;;;;;;6185625;23;20437;-56
2021/05/07 09:54:58;;;;;;;6.57;4.47;;;;;;;;;;6185767;23;20048;-56
2021/05/07 09:57:25;;;;;;;11.43;4.43;;;;;;;;;;6185456;23;20016;-56
2021/05/07 09:59:52;;;;;;;8.17;3.60;;;;;;;;;;6185500;23;20009;-56
2021/05/07 10:02:19;;;;;;;7.03;4.27;;;;;;;;;;6185441;23;20005;-56
2021/05/07 10:04:47;;;;;;;6.27;4.40;;;;;;;;;;6185468;23;20007;-56
2021/05/07 10:07:13;;;;;;;6.13;3.93;;;;;;;;;;6185134;23;20448;-56
2021/05/07 10:09:47;;;;;;;6.57;3.73;;;;;;;;;;6187795;23;20101;-56
2021/05/07 10:12:14;;;;;;;5.70;4.27;;;;;;;;;;6185563;23;20036;-56
2021/05/07 10:14:45;;;;;;;7.30;5.27;;;;;;;;;;6185477;23;20005;-56
2021/05/07 10:17:12;;;;;;;7.33;4.60;;;;;;;;;;6185193;23;20491;-56
2021/05/07 10:19:43;;;;;;;5.30;3.90;;;;;;;;;;6185209;23;20009;-56
2021/05/07 10:22:11;;;;;;;5.70;3.90;;;;;;;;;;6185273;23;20409;-56
2021/05/07 10:24:42;;;;;;;5.27;4.00;;;;;;;;;;6185264;23;20016;-56
2021/05/07 10:27:16;;;;;;;6.97;4.87;;;;;;;;;;6185369;23;20028;-56
2021/05/07 10:29:51;;;;;;;4.50;3.40;;;;;;;;;;6185253;23;20431;-56
2021/05/07 10:32:18;;;;;;;7.40;4.20;;;;;;;;;;6185356;23;20024;-56
2021/05/07 10:34:45;;;;;;;6.57;3.80;;;;;;;;;;6185268;23;20011;-56
2021/05/07 10:37:14;;;;;;;4.87;3.77;;;;;;;;;;6185193;23;20001;-56
2021/05/07 10:39:59;;;;;;;5.37;4.40;;;;;;;;;;6185388;23;20016;-56
2021/05/07 10:42:26;;;;;;;6.13;4.40;;;;;;;;;;6185293;23;20012;-56
2021/05/07 10:44:53;;;;;;;5.37;4.03;;;;;;;;;;6185198;23;20005;-56
2021/05/07 10:47:19;;;;;;;6.20;4.43;;;;;;;;;;6185370;23;20009;-56
2021/05/07 10:49:46;;;;;;;5.60;4.10;;;;;;;;;;6185071;23;20005;-56
2021/05/07 10:52:18;;;;;;;6.47;3.90;;;;;;;;;;6185161;23;20001;-56
2021/05/07 10:54:48;;;;;;;4.90;3.33;;;;;;;;;;6185212;23;20044;-56
2021/05/07 10:57:22;;;;;;;5.63;3.77;;;;;;;;;;6184984;23;20032;-56
2021/05/07 10:59:54;;;;;;;5.53;4.20;;;;;;;;;;6185092;23;20001;-56
2021/05/07 11:02:21;;;;;;;7.63;3.90;;;;;;;;;;6185088;23;20052;-56
2021/05/07 11:04:49;;;;;;;5.63;4.03;;;;;;;;;;6185453;23;20327;-56
2021/05/07 11:07:29;;;;;;;6.73;4.43;;;;;;;;;;6184967;23;20012;-56
2021/05/07 11:10:02;;;;;;;5.53;3.73;;;;;;;;;;6186234;22;20017;-56
2021/05/07 11:12:29;;;;;;;5.50;4.30;;;;;;;;;;6185278;23;20004;-56
2021/05/07 11:14:56;;;;;;;6.07;4.47;;;;;;;;;;6185071;23;20429;-56
2021/05/07 11:17:22;;;;;;;6.80;5.37;;;;;;;;;;6185497;23;20068;-56
2021/05/07 11:19:49;;;;;;;8.27;5.47;;;;;;;;;;6185790;23;20005;-56
2021/05/07 11:22:16;;;;;;;7.70;5.60;;;;;;;;;;6187181;23;20055;-56
2021/05/07 11:24:44;;;;;;;8.47;5.83;;;;;;;;;;6187102;23;20052;-56
2021/05/07 11:27:20;;;;;;;6.77;5.27;;;;;;;;;;6186915;23;20001;-56
2021/05/07 11:29:47;;;;;;;8.77;5.73;;;;;;;;;;6186957;23;20083;-56
2021/05/07 11:32:16;;;;;;;8.83;5.80;;;;;;;;;;6186896;23;20055;-56
2021/05/07 11:34:43;;;;;;;8.30;6.17;;;;;;;;;;6187128;23;20055;-56
2021/05/07 11:37:10;;;;;;;9.00;5.43;;;;;;;;;;6186942;23;19997;-56
2021/05/07 11:39:37;;;;;;;7.10;5.07;;;;;;;;;;6186783;23;20344;-56
2021/05/07 11:42:04;;;;;;;6.73;4.90;;;;;;;;;;6186797;23;20016;-56
2021/05/07 11:44:31;;;;;;;7.97;4.97;;;;;;;;;;6187241;23;20328;-55
2021/05/07 11:47:07;;;;;;;7.23;5.20;;;;;;;;;;6187176;23;20446;-55
2021/05/07 11:49:35;;;;;;;7.47;5.70;;;;;;;;;;6186662;23;20376;-55
2021/05/07 11:52:01;;;;;;;9.23;5.60;;;;;;;;;;6186972;23;20076;-55
2021/05/07 11:54:38;;;;;;;9.40;5.07;;;;;;;;;;6186688;23;20005;-55
2021/05/07 11:57:06;;;;;;;8.57;5.47;;;;;;;;;;6186705;23;20039;-56
2021/05/07 11:59:32;;;;;;;7.30;5.17;;;;;;;;;;6186846;23;20028;-56
2021/05/07 12:02:06;;;;;;;7.23;4.30;;;;;;;;;;6186734;23;20005;-55
2021/05/07 12:04:45;;;;;;;7.47;4.83;;;;;;;;;;6187572;23;20023;-55
2021/05/07 12:07:24;;;;;;;7.37;5.50;;;;;;;;;;6186693;23;20032;-56
2021/05/07 12:09:51;;;;;;;29.47;15.73;;;;;;;;;;6187885;23;20024;-56
2021/05/07 12:12:18;;;;;;;10.37;7.70;;;;;;;;;;6186679;23;19997;-55
2021/05/07 12:14:49;;;;;;;10.77;6.40;;;;;;;;;;6186550;23;20011;-55
2021/05/07 12:17:21;;;;;;;7.80;5.47;;;;;;;;;;6186650;23;20431;-56
2021/05/07 12:20:08;;;;;;;7.50;5.53;;;;;;;;;;6186459;23;20020;-55
2021/05/07 12:22:35;;;;;;;6.73;4.97;;;;;;;;;;6186486;23;20427;-57
2021/05/07 12:25:18;;;;;;;9.90;5.10;;;;;;;;;;6186511;23;20005;-57
2021/05/07 12:27:45;;;;;;;7.70;5.00;;;;;;;;;;6186530;23;20072;-57
2021/05/07 12:30:24;;;;;;;8.97;5.20;;;;;;;;;;6186148;23;20016;-57
2021/05/07 12:33:05;;;;;;;7.73;5.13;;;;;;;;;;6186334;23;20009;-57
2021/05/07 12:35:37;;;;;;;7.63;6.27;;;;;;;;;;6186495;23;19997;-56
2021/05/07 12:38:24;;;;;;;7.40;4.83;;;;;;;;;;6186274;23;20019;-57
2021/05/07 12:40:52;;;;;;;7.07;5.30;;;;;;;;;;6186276;23;20371;-57
2021/05/07 12:43:19;;;;;;;7.47;5.53;;;;;;;;;;6186343;23;20424;-57
2021/05/07 12:45:49;;;;;;;9.73;6.87;;;;;;;;;;6186479;23;20002;-57
2021/05/07 12:48:16;;;;;;;13.80;8.63;;;;;;;;;;6186157;23;20422;-57
2021/05/07 12:50:43;;;;;;;10.53;7.80;;;;;;;;;;6186177;23;20084;-57
2021/05/07 12:53:13;;;;;;;10.20;7.90;;;;;;;;;;6186134;23;20008;-57
2021/05/07 12:55:40;;;;;;;12.53;8.67;;;;;;;;;;6186212;23;20464;-57
2021/05/07 12:58:07;;;;;;;12.80;8.27;;;;;;;;;;6186010;23;20340;-57
2021/05/07 13:00:34;;;;;;;12.27;7.33;;;;;;;;;;6159789;23;20012;-57
2021/05/07 13:03:00;;;;;;;10.27;7.83;;;;;;;;;;6159783;23;20516;-57
2021/05/07 13:05:27;;;;;;;10.70;7.33;;;;;;;;;;6186068;23;20005;-57
2021/05/07 13:07:54;;;;;;;10.17;7.53;;;;;;;;;;6186182;23;20219;-57
2021/05/07 13:10:21;;;;;;;9.10;6.77;;;;;;;;;;6187095;23;20359;-57
2021/05/07 13:12:49;;;;;;;9.13;6.00;;;;;;;;;;6185978;23;20012;-57
2021/05/07 13:15:18;;;;;;;8.77;6.60;;;;;;;;;;6186008;23;19997;-57
2021/05/07 13:17:45;;;;;;;12.73;7.67;;;;;;;;;;6185830;23;20031;-57
2021/05/07 13:20:12;;;;;;;7.57;6.13;;;;;;;;;;6185975;23;20327;-57
2021/05/07 13:22:39;;;;;;;9.97;7.43;;;;;;;;;;6185930;23;20332;-57
2021/05/07 13:25:06;;;;;;;9.33;6.47;;;;;;;;;;6186009;23;20001;-57
2021/05/07 13:27:33;;;;;;;7.20;5.20;;;;;;;;;;6185771;23;20301;-57
2021/05/07 13:30:00;;;;;;;8.90;5.10;;;;;;;;;;6185826;23;20032;-56
2021/05/07 13:32:29;;;;;;;7.40;5.70;;;;;;;;;;6185947;23;19997;-57
2021/05/07 13:34:56;;;;;;;7.23;4.97;;;;;;;;;;6185695;23;20009;-57
2021/05/07 13:37:23;;;;;;;6.97;4.30;;;;;;;;;;6185581;23;20001;-57
2021/05/07 13:39:49;;;;;;;5.63;4.23;;;;;;;;;;6185803;23;20064;-57
2021/05/07 13:42:16;;;;;;;6.30;4.40;;;;;;;;;;6185488;23;19997;-57
2021/05/07 13:44:43;;;;;;;8.73;4.50;;;;;;;;;;6185594;23;20035;-57
2021/05/07 13:47:10;;;;;;;6.87;3.93;;;;;;;;;;6185552;23;20001;-57
2021/05/07 13:49:36;;;;;;;6.30;4.10;;;;;;;;;;6185555;23;20005;-57
2021/05/07 13:52:16;;;;;;;6.73;3.90;;;;;;;;;;6185603;23;20076;-57
2021/05/07 13:54:43;;;;;;;9.30;4.33;;;;;;;;;;6185991;23;20009;-57
2021/05/07 13:57:10;;;;;;;6.17;3.90;;;;;;;;;;6185542;23;20043;-57
2021/05/07 13:59:37;;;;;;;6.20;3.87;;;;;;;;;;6185841;23;20317;-57
2021/05/07 14:02:04;;;;;;;8.07;4.60;;;;;;;;;;6185504;23;20310;-57
2021/05/07 14:04:30;;;;;;;7.27;4.67;;;;;;;;;;6185481;23;20063;-57
2021/05/07 14:06:57;;;;;;;6.70;4.37;;;;;;;;;;6185362;23;20005;-57
2021/05/07 14:09:24;;;;;;;6.40;4.33;;;;;;;;;;6186624;23;20016;-57
2021/05/07 14:11:51;;;;;;;5.00;3.70;;;;;;;;;;6185693;23;20452;-57
2021/05/07 14:14:18;;;;;;;6.33;3.63;;;;;;;;;;6185568;23;19997;-57
2021/05/07 14:16:45;;;;;;;6.57;3.40;;;;;;;;;;6185301;23;20016;-57
2021/05/07 14:19:13;;;;;;;4.20;2.70;;;;;;;;;;6185392;23;20328;-57
2021/05/07 14:21:40;;;;;;;5.17;3.50;;;;;;;;;;6185390;23;20001;-57
2021/05/07 14:24:11;;;;;;;6.17;2.80;;;;;;;;;;6185530;23;20088;-57
2021/05/07 14:26:38;;;;;;;7.93;3.33;;;;;;;;;;6185295;23;20356;-57
2021/05/07 14:29:05;;;;;;;7.30;2.77;;;;;;;;;;6185301;23;20051;-57
2021/05/07 14:31:32;;;;;;;4.87;2.17;;;;;;;;;;6185369;23;20032;-57
2021/05/07 14:33:59;;;;;;;7.27;2.73;;;;;;;;;;6185224;23;20005;-57
2021/05/07 14:36:26;;;;;;;6.47;3.07;;;;;;;;;;6185432;23;19997;-57
2021/05/07 14:38:53;;;;;;;6.70;2.53;;;;;;;;;;6185039;23;20459;-58
2021/05/07 14:41:20;;;;;;;5.13;2.43;;;;;;;;;;6185227;23;20008;-58
2021/05/07 14:43:46;;;;;;;4.37;2.30;;;;;;;;;;6185125;23;20008;-57
2021/05/07 14:46:13;;;;;;;4.10;2.30;;;;;;;;;;6185110;23;20008;-58
2021/05/07 14:48:40;;;;;;;4.30;2.47;;;;;;;;;;6185058;23;20016;-57
2021/05/07 14:51:07;;;;;;;4.70;2.43;;;;;;;;;;6185112;23;20009;-58
2021/05/07 14:53:34;;;;;;;5.67;2.70;;;;;;;;;;6185019;23;20009;-58
2021/05/07 14:56:00;;;;;;;5.57;2.30;;;;;;;;;;6185327;23;20424;-57
2021/05/07 14:58:27;;;;;;;3.53;2.50;;;;;;;;;;6184913;23;20013;-58
2021/05/07 15:00:54;;;;;;;3.90;2.40;;;;;;;;;;6185075;23;20051;-58
2021/05/07 15:03:23;;;;;;;3.60;2.40;;;;;;;;;;6185057;23;20005;-58
2021/05/07 15:05:53;;;;;;;5.37;2.87;;;;;;;;;;6185088;23;20361;-58
2021/05/07 15:08:22;;;;;;;4.03;2.20;;;;;;;;;;6184940;23;20040;-57
2021/05/07 15:10:49;;;;;;;4.53;2.40;;;;;;;;;;6186311;23;20044;-57
2021/05/07 15:13:16;;;;;;;7.53;2.90;;;;;;;;;;6158685;23;20005;-57
2021/05/07 15:15:43;;;;;;;8.30;4.37;;;;;;;;;;6185000;23;20088;-57
2021/05/07 15:18:10;;;;;;;3.53;2.07;;;;;;;;;;6184992;23;20089;-57
2021/05/07 15:20:37;;;;;;;4.00;2.30;;;;;;;;;;6184975;23;19997;-57
2021/05/07 15:23:04;;;;;;;3.47;1.87;;;;;;;;;;6185175;23;20455;-57
2021/05/07 15:25:31;;;;;;;3.90;2.03;;;;;;;;;;6185187;23;20009;-57
2021/05/07 15:27:58;;;;;;;2.93;1.90;;;;;;;;;;6185052;23;20005;-57
2021/05/07 15:30:25;;;;;;;3.20;2.10;;;;;;;;;;6185242;23;20005;-57
2021/05/07 15:32:53;;;;;;;4.20;2.47;;;;;;;;;;6185068;23;20052;-57
2021/05/07 15:35:20;;;;;;;3.23;2.03;;;;;;;;;;6184925;23;20048;-57
2021/05/07 15:37:48;;;;;;;6.00;2.73;;;;;;;;;;6184793;23;20332;-57
2021/05/07 15:40:16;;;;;;;6.93;2.30;;;;;;;;;;6185097;23;20008;-57
2021/05/07 15:42:43;;;;;;;3.50;1.83;;;;;;;;;;6184803;23;20128;-57
2021/05/07 15:45:10;;;;;;;3.97;2.30;;;;;;;;;;6184983;23;20083;-57
2021/05/07 15:47:37;;;;;;;2.60;1.83;;;;;;;;;;6184982;23;20060;-57
2021/05/07 15:50:06;;;;;;;3.90;2.13;;;;;;;;;;6184834;23;20218;-57
2021/05/07 15:52:33;;;;;;;4.10;2.23;;;;;;;;;;6184880;23;19998;-57
2021/05/07 15:55:00;;;;;;;4.47;2.50;;;;;;;;;;6158430;23;20009;-57
2021/05/07 15:57:27;;;;;;;5.20;2.30;;;;;;;;;;6184804;23;20004;-57
2021/05/07 15:59:54;;;;;;;3.83;2.43;;;;;;;;;;6184768;23;20017;-57
2021/05/07 16:02:21;;;;;;;3.00;2.27;;;;;;;;;;6184770;23;20015;-57
2021/05/07 16:04:51;;;;;;;5.40;2.60;;;;;;;;;;6184853;23;20109;-57
2021/05/07 16:07:18;;;;;;;3.60;2.27;;;;;;;;;;6186715;23;20432;-57
2021/05/07 16:09:47;;;;;;;3.60;2.63;;;;;;;;;;6187862;22;20021;-58
2021/05/07 16:12:16;;;;;;;4.40;2.43;;;;;;;;;;6186554;23;20005;-57
2021/05/07 16:14:42;;;;;;;3.20;2.30;;;;;;;;;;6186571;23;20043;-57
2021/05/07 16:17:09;;;;;;;5.57;2.63;;;;;;;;;;6186585;23;19997;-58